Crocker, Missouri
Current Conditions -  °F | °C
As of 9:53 AM on Friday 19 Dec 2014 (Local Time) from KTBN Reporting Station
Overcast Overcast  
Wind Chill: 28°   Ceiling: 600
Heat Index: 34°   Visibility: 10mi
Dew Point: 34°   Wind: 7mph
Humidity: 100%   Direction: 120°ESE
Pressure: 30.25"   Gusts: NA
Location:  37.95°N, 92.26°W
Report Text: KTBN 191553Z AUTO 12006KT 10SM OVC006 01/01 A3025 RMK AO2
Loading
Personal Weather Stations






























Interactive Weather Map New forecast layout! Learn more

10-Day Weather Forecast

Advertisements
Track Severe Weather on mobile